createdAt,value
2017-10-15T00:00:25.145Z,12.92
2017-10-15T00:01:25.118Z,12.97
2017-10-15T00:02:27.080Z,12.95
2017-10-15T00:03:25.128Z,12.92
2017-10-15T00:04:25.131Z,12.93
2017-10-15T00:05:25.167Z,12.92
2017-10-15T00:06:25.144Z,12.95
2017-10-15T00:07:25.204Z,12.95
2017-10-15T00:08:25.194Z,12.96
2017-10-15T00:09:25.198Z,12.96
2017-10-15T00:10:25.209Z,12.93
2017-10-15T00:11:25.210Z,12.92
2017-10-15T00:12:25.191Z,12.93
2017-10-15T00:13:25.277Z,12.96
2017-10-15T00:14:25.212Z,12.89
2017-10-15T00:15:25.228Z,12.92
2017-10-15T00:16:25.219Z,12.88
2017-10-15T00:17:25.259Z,12.96
2017-10-15T00:18:25.257Z,12.92
2017-10-15T00:19:25.250Z,12.88
2017-10-15T00:20:25.255Z,12.82
2017-10-15T00:21:25.253Z,12.84
2017-10-15T00:22:25.294Z,12.84
2017-10-15T00:23:25.293Z,12.81
2017-10-15T00:24:25.279Z,12.77
2017-10-15T00:25:25.284Z,12.77
2017-10-15T00:26:25.326Z,12.81
2017-10-15T00:27:25.290Z,12.78
2017-10-15T00:28:25.292Z,12.75
2017-10-15T00:29:25.339Z,12.74
2017-10-15T00:30:25.329Z,12.81
2017-10-15T00:31:25.328Z,12.74
2017-10-15T00:32:25.339Z,12.66
2017-10-15T00:33:25.350Z,12.70
2017-10-15T00:34:25.352Z,12.69
2017-10-15T00:35:25.337Z,12.63
2017-10-15T00:36:25.381Z,12.60
2017-10-15T00:37:25.379Z,12.63
2017-10-15T00:38:25.428Z,12.67
2017-10-15T00:39:25.380Z,12.66
2017-10-15T00:40:25.411Z,12.60
2017-10-15T00:41:25.380Z,12.66
2017-10-15T00:42:25.397Z,12.56
2017-10-15T00:43:25.397Z,12.74
2017-10-15T00:44:25.406Z,12.66
2017-10-15T00:45:25.440Z,12.57
2017-10-15T00:46:25.419Z,12.59
2017-10-15T00:47:25.464Z,12.59
2017-10-15T00:48:25.457Z,12.66
2017-10-15T00:49:25.507Z,12.64
2017-10-15T00:50:25.444Z,12.56
2017-10-15T00:51:25.451Z,12.64
2017-10-15T00:52:25.467Z,12.66
2017-10-15T00:53:25.479Z,12.56
2017-10-15T00:54:25.503Z,12.64
2017-10-15T00:55:25.479Z,12.67
2017-10-15T00:56:25.504Z,12.63
2017-10-15T00:57:25.529Z,12.57
2017-10-15T00:58:25.500Z,12.69
2017-10-15T00:59:25.527Z,12.67
2017-10-15T01:00:25.516Z,12.63
2017-10-15T01:01:25.523Z,12.66
2017-10-15T01:02:25.548Z,12.69
2017-10-15T01:03:25.552Z,12.59
2017-10-15T01:04:25.566Z,12.57
2017-10-15T01:05:25.567Z,12.60
2017-10-15T01:06:25.558Z,12.56
2017-10-15T01:07:25.554Z,12.59
2017-10-15T01:08:25.576Z,12.63
2017-10-15T01:09:25.583Z,12.66
2017-10-15T01:10:25.576Z,12.66
2017-10-15T01:11:25.593Z,12.67
2017-10-15T01:12:25.650Z,12.66
2017-10-15T01:13:25.636Z,12.69
2017-10-15T01:14:25.614Z,12.62
2017-10-15T01:15:25.672Z,12.66
2017-10-15T01:16:25.636Z,12.66
2017-10-15T01:17:25.628Z,12.67
2017-10-15T01:18:25.653Z,12.78
2017-10-15T01:19:25.652Z,12.82
2017-10-15T01:20:25.665Z,12.78
2017-10-15T01:21:25.679Z,12.78
2017-10-15T01:22:25.666Z,12.75
2017-10-15T01:23:25.670Z,12.71
2017-10-15T01:24:25.710Z,12.77
2017-10-15T01:25:25.723Z,12.71
2017-10-15T01:26:25.699Z,12.70
2017-10-15T01:27:25.725Z,12.66
2017-10-15T01:28:25.701Z,12.66
2017-10-15T01:29:25.781Z,12.63
2017-10-15T01:30:25.733Z,12.60
2017-10-15T01:31:25.750Z,12.63
2017-10-15T01:32:25.736Z,12.67
2017-10-15T01:33:25.778Z,12.64
2017-10-15T01:34:25.793Z,12.64
2017-10-15T01:35:25.788Z,12.57
2017-10-15T01:36:25.762Z,12.54
2017-10-15T01:37:25.774Z,12.57
2017-10-15T01:38:25.773Z,12.57
2017-10-15T01:39:25.802Z,12.57
2017-10-15T01:40:25.793Z,12.57
2017-10-15T01:41:25.801Z,12.56
2017-10-15T01:42:25.799Z,12.57
2017-10-15T01:43:25.827Z,12.42
2017-10-15T01:44:25.827Z,12.41
2017-10-15T01:45:25.820Z,12.51
2017-10-15T01:46:25.836Z,12.41
2017-10-15T01:47:25.863Z,12.41
2017-10-15T01:48:25.841Z,12.39
2017-10-15T01:49:25.886Z,12.37
2017-10-15T01:50:25.841Z,12.31
2017-10-15T01:51:25.868Z,12.30
2017-10-15T01:52:25.913Z,12.26
2017-10-15T01:53:25.869Z,12.29
2017-10-15T01:54:25.888Z,12.29
2017-10-15T01:55:25.904Z,12.29
2017-10-15T01:56:25.909Z,12.19
2017-10-15T01:57:25.926Z,12.23
2017-10-15T01:58:25.919Z,12.20
2017-10-15T01:59:25.921Z,12.20
2017-10-15T02:00:25.916Z,12.19
2017-10-15T02:01:25.955Z,12.20
2017-10-15T02:02:25.928Z,12.19
2017-10-15T02:03:25.935Z,12.19
2017-10-15T02:04:25.952Z,12.12
2017-10-15T02:05:25.954Z,12.12
2017-10-15T02:06:25.987Z,12.20
2017-10-15T02:07:25.979Z,12.16
2017-10-15T02:08:25.994Z,12.12
2017-10-15T02:09:25.970Z,12.19
2017-10-15T02:10:25.976Z,12.13
2017-10-15T02:11:25.997Z,12.20
2017-10-15T02:12:25.996Z,12.23
2017-10-15T02:13:25.990Z,12.23
2017-10-15T02:14:26.028Z,12.26
2017-10-15T02:15:26.036Z,12.24
2017-10-15T02:16:26.075Z,12.21
2017-10-15T02:17:26.022Z,12.33
2017-10-15T02:18:26.031Z,12.23
2017-10-15T02:19:26.050Z,12.29
2017-10-15T02:20:26.039Z,12.29
2017-10-15T02:21:26.070Z,12.29
2017-10-15T02:22:26.050Z,12.29
2017-10-15T02:23:26.079Z,12.37
2017-10-15T02:24:26.117Z,12.37
2017-10-15T02:25:26.106Z,12.31
2017-10-15T02:26:26.122Z,12.37
2017-10-15T02:27:26.117Z,12.31
2017-10-15T02:28:26.093Z,12.31
2017-10-15T02:29:26.115Z,12.30
2017-10-15T02:30:26.120Z,12.31
2017-10-15T02:31:26.172Z,12.31
2017-10-15T02:32:26.156Z,12.34
2017-10-15T02:33:26.152Z,12.29
2017-10-15T02:34:26.150Z,12.29
2017-10-15T02:35:26.146Z,12.31
2017-10-15T02:36:26.171Z,12.33
2017-10-15T02:37:26.182Z,12.33
2017-10-15T02:38:26.164Z,12.30
2017-10-15T02:39:26.209Z,12.29
2017-10-15T02:40:26.186Z,12.29
2017-10-15T02:41:26.192Z,12.29
2017-10-15T02:42:26.204Z,12.27
2017-10-15T02:43:26.199Z,12.33
2017-10-15T02:44:26.224Z,12.26
2017-10-15T02:45:26.212Z,12.31
2017-10-15T02:46:26.246Z,12.26
2017-10-15T02:47:26.237Z,12.26
2017-10-15T02:48:26.250Z,12.31
2017-10-15T02:49:26.234Z,12.29
2017-10-15T02:50:26.249Z,12.31
2017-10-15T02:51:26.260Z,12.27
2017-10-15T02:52:26.271Z,12.27
2017-10-15T02:53:26.272Z,12.24
2017-10-15T02:54:26.302Z,12.31
2017-10-15T02:55:26.280Z,12.26
2017-10-15T02:56:26.288Z,12.26
2017-10-15T02:57:26.288Z,12.29
2017-10-15T02:58:26.317Z,12.26
2017-10-15T02:59:26.313Z,12.21
2017-10-15T03:00:26.316Z,12.33
2017-10-15T03:01:26.356Z,12.26
2017-10-15T03:02:26.347Z,12.31
2017-10-15T03:03:26.368Z,12.26
2017-10-15T03:04:26.362Z,12.29
2017-10-15T03:05:26.337Z,12.30
2017-10-15T03:06:26.362Z,12.29
2017-10-15T03:07:26.361Z,12.29
2017-10-15T03:08:26.379Z,12.30
2017-10-15T03:09:26.404Z,12.24
2017-10-15T03:10:26.404Z,12.30
2017-10-15T03:11:26.389Z,12.15
2017-10-15T03:12:26.395Z,12.26
2017-10-15T03:13:26.399Z,12.23
2017-10-15T03:14:26.408Z,12.34
2017-10-15T03:15:26.434Z,12.13
2017-10-15T03:16:26.461Z,12.29
2017-10-15T03:17:26.450Z,12.19
2017-10-15T03:18:26.470Z,12.16
2017-10-15T03:19:26.495Z,12.19
2017-10-15T03:20:26.458Z,12.19
2017-10-15T03:21:26.445Z,12.13
2017-10-15T03:22:26.452Z,12.13
2017-10-15T03:23:26.452Z,12.05
2017-10-15T03:24:26.502Z,12.13
2017-10-15T03:25:26.473Z,12.15
2017-10-15T03:26:26.521Z,12.12
2017-10-15T03:27:26.484Z,12.04
2017-10-15T03:28:26.489Z,12.06
2017-10-15T03:29:26.522Z,11.99
2017-10-15T03:30:26.525Z,12.04
2017-10-15T03:31:26.502Z,12.05
2017-10-15T03:32:26.559Z,12.04
2017-10-15T03:33:26.528Z,11.96
2017-10-15T03:34:26.579Z,12.04
2017-10-15T03:35:26.559Z,11.99
2017-10-15T03:36:26.546Z,11.96
2017-10-15T03:37:26.607Z,12.01
2017-10-15T03:38:26.571Z,11.85
2017-10-15T03:39:26.578Z,11.83
2017-10-15T03:40:26.648Z,11.90
2017-10-15T03:41:26.601Z,11.90
2017-10-15T03:42:26.586Z,11.90
2017-10-15T03:43:26.589Z,11.80
2017-10-15T03:44:26.584Z,11.80
2017-10-15T03:45:26.662Z,11.83
2017-10-15T03:46:26.618Z,11.87
2017-10-15T03:47:26.607Z,11.82
2017-10-15T03:48:26.629Z,11.83
2017-10-15T03:49:26.639Z,11.78
2017-10-15T03:50:26.632Z,11.83
2017-10-15T03:51:26.679Z,11.82
2017-10-15T03:52:26.643Z,11.78
2017-10-15T03:53:26.692Z,11.77
2017-10-15T03:54:26.645Z,11.78
2017-10-15T03:55:26.663Z,11.77
2017-10-15T03:56:26.715Z,11.68
2017-10-15T03:57:26.687Z,11.75
2017-10-15T03:58:26.693Z,11.75
2017-10-15T03:59:26.686Z,11.77
2017-10-15T04:00:26.679Z,11.71
2017-10-15T04:01:26.700Z,11.70
2017-10-15T04:02:26.706Z,11.68
2017-10-15T04:03:26.751Z,11.65
2017-10-15T04:04:26.706Z,11.62
2017-10-15T04:05:26.760Z,11.72
2017-10-15T04:06:26.748Z,11.65
2017-10-15T04:07:26.779Z,11.68
2017-10-15T04:08:26.747Z,11.65
2017-10-15T04:09:26.740Z,11.65
2017-10-15T04:10:26.760Z,11.67
2017-10-15T04:11:26.762Z,11.70
2017-10-15T04:12:26.764Z,11.61
2017-10-15T04:13:26.778Z,11.64
2017-10-15T04:14:26.801Z,11.62
2017-10-15T04:15:26.806Z,11.56
2017-10-15T04:16:26.801Z,11.57
2017-10-15T04:17:26.795Z,11.59
2017-10-15T04:18:26.805Z,11.61
2017-10-15T04:19:26.848Z,11.67
2017-10-15T04:20:26.814Z,11.77
2017-10-15T04:21:26.844Z,11.68
2017-10-15T04:22:26.843Z,11.72
2017-10-15T04:23:26.829Z,11.65
2017-10-15T04:24:26.870Z,11.72
2017-10-15T04:25:26.857Z,11.77
2017-10-15T04:26:26.865Z,11.78
2017-10-15T04:27:26.850Z,11.77
2017-10-15T04:28:26.885Z,11.77
2017-10-15T04:29:26.894Z,11.74
2017-10-15T04:30:26.875Z,11.75
2017-10-15T04:31:26.880Z,11.72
2017-10-15T04:32:26.911Z,11.72
2017-10-15T04:33:26.915Z,11.80
2017-10-15T04:34:26.914Z,11.77
2017-10-15T04:35:26.933Z,11.83
2017-10-15T04:36:26.959Z,11.80
2017-10-15T04:37:26.935Z,11.75
2017-10-15T04:38:26.939Z,11.70
2017-10-15T04:39:26.971Z,11.77
2017-10-15T04:40:26.943Z,11.74
2017-10-15T04:41:26.965Z,11.77
2017-10-15T04:42:26.992Z,11.65
2017-10-15T04:43:27.002Z,11.65
2017-10-15T04:44:26.987Z,11.74
2017-10-15T04:45:26.974Z,11.68
2017-10-15T04:46:26.986Z,11.72
2017-10-15T04:47:26.993Z,11.77
2017-10-15T04:48:27.006Z,11.77
2017-10-15T04:49:27.001Z,11.61
2017-10-15T04:50:27.011Z,11.70
2017-10-15T04:51:27.008Z,11.67
2017-10-15T04:52:27.060Z,11.65
2017-10-15T04:53:27.021Z,11.65
2017-10-15T04:54:27.031Z,11.68
2017-10-15T04:55:27.028Z,11.67
2017-10-15T04:56:27.037Z,11.62
2017-10-15T04:57:27.050Z,11.59
2017-10-15T04:58:27.074Z,11.59
2017-10-15T04:59:27.058Z,11.62
2017-10-15T05:00:27.082Z,11.56
2017-10-15T05:01:27.076Z,11.57
2017-10-15T05:02:27.088Z,11.52
2017-10-15T05:03:27.077Z,11.61
2017-10-15T05:04:27.089Z,11.54
2017-10-15T05:05:27.089Z,11.53
2017-10-15T05:06:27.125Z,11.49
2017-10-15T05:07:27.099Z,11.52
2017-10-15T05:08:27.099Z,11.46
2017-10-15T05:09:27.116Z,11.53
2017-10-15T05:10:27.141Z,11.43
2017-10-15T05:11:27.146Z,11.43
2017-10-15T05:12:27.144Z,11.41
2017-10-15T05:13:27.144Z,11.35
2017-10-15T05:14:27.163Z,11.38
2017-10-15T05:15:27.174Z,11.28
2017-10-15T05:16:27.187Z,11.32
2017-10-15T05:17:27.168Z,11.34
2017-10-15T05:18:27.172Z,11.36
2017-10-15T05:19:27.201Z,11.35
2017-10-15T05:20:27.185Z,11.29
2017-10-15T05:21:27.222Z,11.28
2017-10-15T05:22:27.197Z,11.24
2017-10-15T05:23:27.224Z,11.32
2017-10-15T05:24:27.204Z,11.34
2017-10-15T05:25:27.219Z,11.38
2017-10-15T05:26:27.232Z,11.28
2017-10-15T05:27:27.241Z,11.20
2017-10-15T05:28:27.234Z,11.19
2017-10-15T05:29:27.282Z,11.17
2017-10-15T05:30:27.241Z,11.21
2017-10-15T05:31:27.254Z,11.19
2017-10-15T05:32:27.265Z,11.17
2017-10-15T05:33:27.275Z,11.14
2017-10-15T05:34:27.281Z,11.19
2017-10-15T05:35:27.312Z,11.13
2017-10-15T05:36:27.271Z,11.21
2017-10-15T05:37:27.294Z,11.20
2017-10-15T05:38:27.321Z,11.19
2017-10-15T05:39:27.297Z,11.10
2017-10-15T05:40:27.297Z,11.17
2017-10-15T05:41:27.327Z,11.13
2017-10-15T05:42:27.335Z,11.14
2017-10-15T05:43:27.331Z,11.11
2017-10-15T05:44:27.327Z,11.03
2017-10-15T05:45:27.329Z,11.03
2017-10-15T05:46:27.398Z,10.96
2017-10-15T05:47:27.353Z,11.06
2017-10-15T05:48:27.374Z,11.07
2017-10-15T05:49:27.344Z,11.06
2017-10-15T05:50:27.386Z,10.98
2017-10-15T05:51:27.370Z,10.95
2017-10-15T05:52:27.405Z,11.02
2017-10-15T05:53:27.379Z,10.96
2017-10-15T05:54:27.393Z,10.91
2017-10-15T05:55:27.421Z,10.89
2017-10-15T05:56:27.415Z,10.95
2017-10-15T05:57:27.401Z,10.94
2017-10-15T05:58:27.423Z,10.91
2017-10-15T05:59:27.417Z,10.84
2017-10-15T06:00:27.432Z,10.88
2017-10-15T06:01:27.433Z,10.89
2017-10-15T06:02:27.449Z,10.89
2017-10-15T06:03:27.430Z,10.80
2017-10-15T06:04:27.437Z,10.89
2017-10-15T06:05:27.448Z,10.83
2017-10-15T06:06:27.484Z,10.81
2017-10-15T06:07:27.514Z,10.83
2017-10-15T06:08:27.472Z,10.84
2017-10-15T06:09:27.475Z,10.91
2017-10-15T06:10:27.522Z,10.89
2017-10-15T06:11:27.483Z,10.83
2017-10-15T06:12:27.514Z,10.94
2017-10-15T06:13:27.512Z,10.88
2017-10-15T06:14:27.521Z,10.89
2017-10-15T06:15:27.533Z,10.81
2017-10-15T06:16:27.547Z,10.80
2017-10-15T06:17:27.540Z,10.84
2017-10-15T06:18:27.523Z,10.95
2017-10-15T06:19:27.569Z,10.95
2017-10-15T06:20:27.559Z,10.95
2017-10-15T06:21:27.549Z,11.01
2017-10-15T06:22:27.552Z,10.95
2017-10-15T06:23:27.558Z,11.07
2017-10-15T06:24:27.553Z,11.09
2017-10-15T06:25:27.560Z,11.14
2017-10-15T06:26:27.599Z,11.09
2017-10-15T06:27:27.575Z,11.09
2017-10-15T06:28:27.570Z,11.09
2017-10-15T06:29:27.609Z,11.10
2017-10-15T06:30:27.625Z,11.17
2017-10-15T06:31:27.604Z,11.20
2017-10-15T06:32:27.605Z,11.21
2017-10-15T06:33:27.616Z,11.24
2017-10-15T06:34:27.639Z,11.16
2017-10-15T06:35:27.634Z,11.17
2017-10-15T06:36:27.648Z,11.21
2017-10-15T06:37:27.651Z,11.24
2017-10-15T06:38:27.636Z,11.20
2017-10-15T06:39:27.648Z,11.19
2017-10-15T06:40:27.677Z,11.17
2017-10-15T06:41:27.656Z,11.27
2017-10-15T06:42:27.680Z,11.29
2017-10-15T06:43:27.699Z,11.32
2017-10-15T06:44:27.671Z,11.38
2017-10-15T06:45:27.691Z,11.28
2017-10-15T06:46:27.729Z,11.38
2017-10-15T06:47:27.737Z,11.34
2017-10-15T06:48:27.698Z,11.43
2017-10-15T06:49:27.724Z,11.38
2017-10-15T06:50:27.743Z,11.53
2017-10-15T06:51:27.768Z,11.56
2017-10-15T06:52:27.745Z,11.56
2017-10-15T06:53:27.742Z,11.59
2017-10-15T06:54:27.739Z,11.62
2017-10-15T06:55:27.752Z,11.67
2017-10-15T06:56:27.774Z,11.68
2017-10-15T06:57:27.781Z,11.68
2017-10-15T06:58:27.786Z,11.75
2017-10-15T06:59:27.794Z,11.74
2017-10-15T07:00:27.809Z,11.77
2017-10-15T07:01:27.777Z,11.75
2017-10-15T07:02:27.797Z,11.75
2017-10-15T07:03:27.811Z,11.83
2017-10-15T07:04:27.792Z,11.82
2017-10-15T07:05:27.813Z,11.78
2017-10-15T07:06:27.850Z,11.82
2017-10-15T07:07:27.830Z,11.85
2017-10-15T07:08:27.855Z,11.82
2017-10-15T07:09:27.837Z,11.82
2017-10-15T07:10:27.840Z,11.90
2017-10-15T07:11:27.865Z,11.96
2017-10-15T07:12:27.880Z,11.97
2017-10-15T07:13:27.861Z,11.83
2017-10-15T07:14:27.889Z,11.89
2017-10-15T07:15:27.869Z,11.93
2017-10-15T07:16:27.880Z,11.96
2017-10-15T07:17:27.931Z,12.04
2017-10-15T07:18:27.916Z,12.06
2017-10-15T07:19:27.911Z,12.08
2017-10-15T07:20:27.911Z,12.06
2017-10-15T07:21:27.901Z,11.99
2017-10-15T07:22:27.916Z,12.04
2017-10-15T07:23:27.951Z,12.05
2017-10-15T07:24:27.951Z,12.01
2017-10-15T07:25:27.941Z,12.06
2017-10-15T07:26:27.947Z,12.01
2017-10-15T07:27:27.945Z,12.05
2017-10-15T07:28:27.967Z,12.11
2017-10-15T07:29:27.974Z,12.08
2017-10-15T07:30:27.967Z,12.05
2017-10-15T07:31:27.975Z,12.16
2017-10-15T07:32:27.985Z,12.20
2017-10-15T07:33:28.019Z,12.26
2017-10-15T07:34:28.007Z,12.27
2017-10-15T07:35:27.989Z,12.33
2017-10-15T07:36:28.003Z,12.46
2017-10-15T07:37:28.023Z,12.44
2017-10-15T07:38:28.026Z,12.56
2017-10-15T07:39:28.017Z,12.69
2017-10-15T07:40:28.084Z,12.78
2017-10-15T07:41:28.062Z,12.99
2017-10-15T07:42:28.057Z,12.99
2017-10-15T07:43:28.065Z,13.17
2017-10-15T07:44:28.065Z,13.33
2017-10-15T07:45:28.097Z,13.41
2017-10-15T07:46:28.114Z,13.54
2017-10-15T07:47:28.099Z,13.71
2017-10-15T07:48:28.221Z,13.70
2017-10-15T07:49:28.102Z,13.88
2017-10-15T07:50:28.127Z,13.98
2017-10-15T07:51:28.117Z,14.07
2017-10-15T07:52:28.129Z,14.19
2017-10-15T07:53:28.147Z,14.14
2017-10-15T07:54:28.142Z,14.28
2017-10-15T07:55:28.174Z,14.56
2017-10-15T07:56:28.172Z,14.50
2017-10-15T07:57:28.187Z,14.71
2017-10-15T07:58:28.181Z,14.80
2017-10-15T07:59:28.199Z,14.81
2017-10-15T08:00:28.217Z,14.87
2017-10-15T08:01:28.217Z,14.95
2017-10-15T08:02:28.210Z,14.99
2017-10-15T08:03:28.261Z,15.08
2017-10-15T08:04:28.288Z,15.21
2017-10-15T08:05:28.264Z,15.20
2017-10-15T08:06:28.256Z,15.23
2017-10-15T08:07:28.262Z,15.27
2017-10-15T08:08:28.278Z,15.30
2017-10-15T08:09:28.291Z,15.35
2017-10-15T08:10:28.284Z,15.38
2017-10-15T08:11:28.314Z,15.36
2017-10-15T08:12:28.339Z,15.41
2017-10-15T08:13:28.341Z,15.42
2017-10-15T08:14:28.332Z,15.54
2017-10-15T08:15:28.347Z,15.46
2017-10-15T08:16:28.375Z,15.54
2017-10-15T08:17:28.368Z,15.61
2017-10-15T08:18:28.364Z,15.57
2017-10-15T08:19:28.377Z,15.61
2017-10-15T08:20:28.400Z,15.64
2017-10-15T08:21:28.383Z,15.68
2017-10-15T08:22:28.441Z,15.67
2017-10-15T08:23:28.426Z,15.68
2017-10-15T08:24:28.435Z,15.70
2017-10-15T08:25:28.426Z,15.74
2017-10-15T08:26:28.454Z,15.81
2017-10-15T08:27:28.468Z,15.81
2017-10-15T08:28:28.477Z,15.78
2017-10-15T08:29:28.469Z,15.70
2017-10-15T08:30:28.482Z,15.76
2017-10-15T08:31:28.487Z,15.78
2017-10-15T08:32:28.506Z,15.84
2017-10-15T08:33:28.523Z,15.59
2017-10-15T08:34:28.523Z,15.59
2017-10-15T08:35:28.533Z,15.57
2017-10-15T08:36:28.571Z,15.68
2017-10-15T08:37:28.542Z,15.61
2017-10-15T08:38:28.558Z,15.63
2017-10-15T08:39:28.548Z,15.59
2017-10-15T08:40:28.572Z,15.60
2017-10-15T08:41:28.598Z,15.61
2017-10-15T08:42:28.607Z,15.63
2017-10-15T08:43:28.591Z,15.61
2017-10-15T08:44:28.631Z,15.66
2017-10-15T08:45:28.606Z,15.57
2017-10-15T08:46:28.634Z,15.60
2017-10-15T08:47:28.614Z,15.60
2017-10-15T08:48:28.641Z,15.70
2017-10-15T08:49:28.663Z,15.67
2017-10-15T08:50:28.645Z,15.72
2017-10-15T08:51:28.652Z,15.72
2017-10-15T08:52:28.677Z,15.72
2017-10-15T08:53:28.729Z,15.78
2017-10-15T08:54:28.695Z,15.78
2017-10-15T08:55:28.729Z,15.81
2017-10-15T08:56:28.748Z,15.78
2017-10-15T08:57:28.720Z,15.92
2017-10-15T08:58:28.718Z,15.76
2017-10-15T08:59:28.746Z,15.86
2017-10-15T09:00:28.756Z,15.94
2017-10-15T09:01:28.767Z,15.88
2017-10-15T09:02:28.752Z,15.92
2017-10-15T09:03:28.774Z,15.94
2017-10-15T09:04:28.782Z,15.94
2017-10-15T09:05:28.809Z,15.97
2017-10-15T09:06:28.809Z,15.97
2017-10-15T09:07:28.829Z,15.89
2017-10-15T09:08:28.828Z,15.84
2017-10-15T09:09:28.830Z,15.94
2017-10-15T09:10:28.847Z,15.93
2017-10-15T09:11:28.840Z,15.99
2017-10-15T09:12:28.835Z,15.89
2017-10-15T09:13:28.853Z,16.03
2017-10-15T09:14:28.882Z,16.07
2017-10-15T09:15:28.897Z,16.11
2017-10-15T09:16:28.881Z,16.16
2017-10-15T09:17:28.896Z,16.18
2017-10-15T09:18:28.920Z,16.22
2017-10-15T09:19:28.913Z,16.22
2017-10-15T09:20:28.928Z,16.23
2017-10-15T09:21:28.963Z,16.23
2017-10-15T09:22:29.024Z,16.22
2017-10-15T09:23:28.959Z,16.15
2017-10-15T09:24:28.979Z,16.22
2017-10-15T09:25:28.997Z,16.18
2017-10-15T09:26:28.976Z,16.20
2017-10-15T09:27:28.976Z,16.18
2017-10-15T09:28:28.993Z,16.20
2017-10-15T09:29:29.012Z,16.26
2017-10-15T09:30:29.010Z,16.44
2017-10-15T09:31:29.032Z,16.31
2017-10-15T09:32:29.036Z,16.42
2017-10-15T09:33:29.039Z,16.38
2017-10-15T09:34:29.061Z,16.41
2017-10-15T09:35:29.055Z,16.45
2017-10-15T09:36:29.072Z,16.50
2017-10-15T09:37:29.074Z,16.55
2017-10-15T09:38:29.155Z,16.45
2017-10-15T09:39:29.109Z,16.50
2017-10-15T09:40:29.110Z,16.53
2017-10-15T09:41:29.109Z,16.60
2017-10-15T09:42:29.144Z,16.59
2017-10-15T09:43:29.139Z,16.70
2017-10-15T09:44:29.176Z,16.67
2017-10-15T09:45:29.178Z,16.70
2017-10-15T09:46:29.180Z,16.81
2017-10-15T09:47:29.162Z,16.74
2017-10-15T09:48:29.172Z,16.96
2017-10-15T09:49:29.202Z,16.90
2017-10-15T09:50:29.249Z,16.98
2017-10-15T09:51:29.241Z,16.98
2017-10-15T09:52:29.252Z,17.08
2017-10-15T09:53:29.257Z,17.11
2017-10-15T09:54:29.236Z,17.22
2017-10-15T09:55:29.280Z,17.23
2017-10-15T09:56:29.266Z,17.28
2017-10-15T09:57:29.263Z,17.28
2017-10-15T09:58:29.274Z,17.35
2017-10-15T09:59:29.304Z,17.40
2017-10-15T10:00:29.301Z,17.38
2017-10-15T10:01:29.327Z,17.33
2017-10-15T10:02:29.335Z,17.47
2017-10-15T10:03:29.336Z,17.54
2017-10-15T10:04:29.339Z,17.53
2017-10-15T10:05:29.346Z,17.57
2017-10-15T10:06:29.357Z,17.55
2017-10-15T10:07:29.362Z,17.57
2017-10-15T10:08:29.372Z,17.55
2017-10-15T10:09:29.399Z,17.64
2017-10-15T10:10:29.415Z,17.59
2017-10-15T10:11:29.407Z,17.70
2017-10-15T10:12:29.425Z,17.69
2017-10-15T10:13:29.448Z,17.70
2017-10-15T10:14:29.452Z,17.74
2017-10-15T10:15:29.441Z,17.79
2017-10-15T10:16:29.453Z,17.88
2017-10-15T10:17:29.462Z,17.97
2017-10-15T10:18:29.487Z,18.06
2017-10-15T10:19:29.495Z,17.99
2017-10-15T10:20:29.487Z,18.02
2017-10-15T10:21:29.501Z,17.99
2017-10-15T10:22:29.516Z,18.12
2017-10-15T10:23:29.518Z,18.12
2017-10-15T10:24:29.528Z,18.21
2017-10-15T10:25:29.542Z,18.33
2017-10-15T10:26:29.544Z,18.37
2017-10-15T10:27:29.583Z,18.40
2017-10-15T10:28:29.590Z,18.37
2017-10-15T10:29:29.591Z,18.49
2017-10-15T10:30:29.587Z,18.47
2017-10-15T10:31:29.602Z,18.46
2017-10-15T10:32:29.602Z,18.49
2017-10-15T10:33:29.615Z,18.47
2017-10-15T10:34:29.634Z,18.47
2017-10-15T10:35:29.670Z,18.49
2017-10-15T10:36:29.653Z,18.50
2017-10-15T10:37:29.660Z,18.55
2017-10-15T10:38:29.673Z,18.62
2017-10-15T10:39:29.702Z,18.62
2017-10-15T10:40:29.694Z,18.67
2017-10-15T10:41:29.705Z,18.61
2017-10-15T10:42:29.760Z,18.76
2017-10-15T10:43:29.738Z,18.74
2017-10-15T10:44:29.742Z,18.70
2017-10-15T10:45:29.765Z,18.76
2017-10-15T10:46:29.756Z,18.76
2017-10-15T10:47:29.766Z,18.77
2017-10-15T10:48:29.792Z,18.79
2017-10-15T10:49:29.831Z,18.77
2017-10-15T10:50:29.802Z,18.83
2017-10-15T10:51:29.807Z,18.80
2017-10-15T10:52:29.827Z,18.82
2017-10-15T10:53:29.829Z,18.76
2017-10-15T10:54:29.841Z,18.83
2017-10-15T10:55:29.865Z,18.95
2017-10-15T10:56:29.898Z,18.87
2017-10-15T10:57:29.904Z,18.99
2017-10-15T10:58:29.904Z,19.01
2017-10-15T10:59:29.913Z,19.10
2017-10-15T11:00:29.906Z,19.11
2017-10-15T11:01:29.951Z,19.11
2017-10-15T11:02:29.961Z,19.15
2017-10-15T11:03:29.951Z,19.28
2017-10-15T11:04:29.995Z,19.20
2017-10-15T11:05:29.963Z,19.31
2017-10-15T11:06:30.025Z,19.35
2017-10-15T11:07:29.993Z,19.38
2017-10-15T11:08:29.998Z,19.43
2017-10-15T11:09:30.041Z,19.40
2017-10-15T11:10:30.028Z,19.40
2017-10-15T11:11:30.025Z,19.54
2017-10-15T11:12:30.056Z,19.47
2017-10-15T11:13:30.063Z,19.48
2017-10-15T11:14:30.075Z,19.40
2017-10-15T11:15:30.102Z,19.43
2017-10-15T11:16:30.135Z,19.47
2017-10-15T11:17:30.124Z,19.40
2017-10-15T11:18:30.122Z,19.51
2017-10-15T11:19:30.130Z,19.51
2017-10-15T11:20:30.153Z,19.61
2017-10-15T11:21:30.181Z,19.69
2017-10-15T11:22:30.176Z,19.70
2017-10-15T11:23:30.184Z,19.75
2017-10-15T11:24:30.184Z,19.76
2017-10-15T11:25:30.199Z,19.73
2017-10-15T11:26:30.222Z,19.73
2017-10-15T11:27:30.215Z,19.69
2017-10-15T11:28:30.232Z,19.66
2017-10-15T11:29:30.239Z,19.69
2017-10-15T11:30:30.247Z,19.72
2017-10-15T11:31:30.297Z,19.70
2017-10-15T11:32:30.288Z,19.68
2017-10-15T11:33:30.289Z,19.79
2017-10-15T11:34:30.302Z,19.78
2017-10-15T11:35:30.319Z,19.75
2017-10-15T11:36:30.324Z,19.83
2017-10-15T11:37:30.338Z,19.79
2017-10-15T11:38:30.369Z,19.80
2017-10-15T11:39:30.364Z,19.90
2017-10-15T11:40:30.362Z,19.93
2017-10-15T11:41:30.381Z,19.91
2017-10-15T11:42:30.403Z,19.90
2017-10-15T11:43:30.431Z,19.95
2017-10-15T11:44:30.404Z,20.02
2017-10-15T11:45:30.414Z,20.02
2017-10-15T11:46:30.430Z,20.02
2017-10-15T11:47:30.445Z,20.05
2017-10-15T11:48:30.451Z,20.13
2017-10-15T11:49:30.485Z,20.18
2017-10-15T11:50:30.488Z,20.18
2017-10-15T11:51:30.491Z,20.28
2017-10-15T11:52:30.517Z,20.30
2017-10-15T11:53:30.515Z,20.39
2017-10-15T11:54:30.537Z,20.38
2017-10-15T11:55:30.545Z,20.38
2017-10-15T11:56:30.544Z,20.46
2017-10-15T11:57:30.561Z,20.49
2017-10-15T11:58:30.587Z,20.50
2017-10-15T11:59:30.613Z,20.49
2017-10-15T12:00:30.603Z,20.53
2017-10-15T12:01:30.624Z,20.64
2017-10-15T12:02:30.629Z,20.65
2017-10-15T12:03:30.647Z,20.66
2017-10-15T12:04:30.662Z,20.71
2017-10-15T12:05:30.658Z,20.69
2017-10-15T12:06:30.674Z,20.66
2017-10-15T12:07:30.686Z,20.68
2017-10-15T12:08:30.697Z,20.71
2017-10-15T12:09:30.705Z,20.77
2017-10-15T12:10:30.744Z,20.74
2017-10-15T12:11:30.724Z,20.69
2017-10-15T12:12:30.746Z,20.79
2017-10-15T12:13:30.761Z,20.77
2017-10-15T12:14:30.762Z,20.84
2017-10-15T12:15:30.773Z,20.72
2017-10-15T12:16:30.788Z,20.86
2017-10-15T12:17:30.823Z,20.90
2017-10-15T12:18:30.830Z,20.93
2017-10-15T12:19:30.825Z,20.93
2017-10-15T12:20:30.846Z,20.89
2017-10-15T12:21:30.851Z,20.84
2017-10-15T12:22:30.883Z,21.01
2017-10-15T12:23:30.897Z,20.96
2017-10-15T12:24:30.898Z,20.96
2017-10-15T12:25:30.898Z,21.09
2017-10-15T12:26:30.914Z,20.96
2017-10-15T12:27:30.935Z,21.09
2017-10-15T12:28:30.956Z,21.08
2017-10-15T12:29:30.959Z,21.04
2017-10-15T12:30:30.977Z,21.05
2017-10-15T12:31:30.988Z,21.08
2017-10-15T12:32:30.981Z,21.13
2017-10-15T12:33:31.003Z,21.14
2017-10-15T12:34:31.009Z,21.17
2017-10-15T12:35:31.051Z,21.20
2017-10-15T12:36:31.055Z,21.29
2017-10-15T12:37:31.104Z,21.34
2017-10-15T12:38:31.089Z,21.35
2017-10-15T12:39:31.072Z,21.42
2017-10-15T12:40:31.086Z,21.38
2017-10-15T12:41:31.095Z,21.44
2017-10-15T12:42:31.119Z,21.36
2017-10-15T12:43:31.131Z,21.46
2017-10-15T12:44:31.143Z,21.48
2017-10-15T12:45:31.161Z,21.41
2017-10-15T12:46:31.161Z,21.45
2017-10-15T12:47:31.176Z,21.50
2017-10-15T12:48:31.185Z,21.53
2017-10-15T12:49:31.201Z,21.63
2017-10-15T12:50:31.212Z,21.60
2017-10-15T12:51:31.232Z,21.64
2017-10-15T12:52:31.243Z,21.71